Time;durP1;ratioP1;P1;durP2;ratioP2;P2;SDS_P1;SDS_P2;PMS_P1;PMS_P2;Temp;Humidity;BMP_temperature;BMP_pressure;BME280_temperature;BME280_humidity;BME280_pressure;Samples;Min_cycle;Max_cycle;Signal;HPM_P1;HPM_P2
2022/06/03 00:00:24;;;;;;;7.20;3.42;;;10.30;99.90;;;;;;5053709;28;20053;-78
2022/06/03 00:03:11;;;;;;;6.18;3.40;;;10.20;99.90;;;;;;5057164;28;20048;-78
2022/06/03 00:05:48;;;;;;;6.20;3.60;;;10.20;99.90;;;;;;5074090;28;20044;-78
2022/06/03 00:08:39;;;;;;;5.40;3.33;;;10.20;99.90;;;;;;5070258;28;20052;-78
2022/06/03 00:11:32;;;;;;;9.80;3.88;;;10.10;99.90;;;;;;5050289;28;20048;-78
2022/06/03 00:14:30;;;;;;;6.68;3.47;;;10.10;99.90;;;;;;5072984;28;20098;-78
2022/06/03 00:17:01;;;;;;;7.40;4.32;;;10.10;99.90;;;;;;5071001;28;20084;-78
2022/06/03 00:19:42;;;;;;;8.70;3.53;;;10.00;99.90;;;;;;5054218;28;20495;-78
2022/06/03 00:22:50;;;;;;;9.50;4.68;;;10.10;99.90;;;;;;5060355;28;20099;-78
2022/06/03 00:25:31;;;;;;;7.32;3.38;;;10.00;99.90;;;;;;5073968;28;20044;-78
2022/06/03 00:28:00;;;;;;;7.28;3.65;;;10.00;99.90;;;;;;5072396;28;20101;-78
2022/06/03 00:30:33;;;;;;;10.15;4.10;;;10.00;99.90;;;;;;5073987;28;20074;-78
2022/06/03 00:33:01;;;;;;;8.68;4.05;;;10.00;99.90;;;;;;5073338;28;20055;-78
2022/06/03 00:35:33;;;;;;;8.00;4.13;;;10.00;99.90;;;;;;5074311;28;20045;-78
2022/06/03 00:38:25;;;;;;;7.65;4.43;;;10.00;99.90;;;;;;5063818;28;20045;-78
2022/06/03 00:41:29;;;;;;;8.90;4.30;;;10.00;99.90;;;;;;5076857;28;20052;-78
2022/06/03 00:44:32;;;;;;;8.88;4.60;;;10.00;99.90;;;;;;5071834;28;20041;-78
2022/06/03 00:47:14;;;;;;;6.43;4.32;;;10.00;99.90;;;;;;5074288;28;20131;-78
2022/06/03 00:50:17;;;;;;;5.07;4.13;;;10.00;99.90;;;;;;5052943;28;20435;-77
2022/06/03 00:52:46;;;;;;;4.65;3.38;;;10.00;99.90;;;;;;5061191;28;20055;-78
2022/06/03 00:55:42;;;;;;;7.85;4.13;;;10.00;99.90;;;;;;5073911;28;20457;-78
2022/06/03 00:58:11;;;;;;;7.85;4.47;;;10.00;99.90;;;;;;5072162;28;20063;-78
2022/06/03 01:01:01;;;;;;;7.40;3.97;;;10.00;99.90;;;;;;5073553;28;20473;-78
2022/06/03 01:03:36;;;;;;;5.93;4.25;;;10.00;99.90;;;;;;5066757;28;20064;-77
2022/06/03 01:06:17;;;;;;;;;;;10.00;99.90;;;;;;5074957;28;20040;-78
2022/06/03 01:09:32;;;;;;;5.45;4.32;;;9.90;99.90;;;;;;5056920;28;19921;-78
2022/06/03 01:12:10;;;;;;;5.50;4.45;;;9.90;99.90;;;;;;5050260;28;20091;-78
2022/06/03 01:15:14;;;;;;;7.60;4.30;;;9.90;99.90;;;;;;5073227;28;20053;-78
2022/06/03 01:17:58;;;;;;;13.18;4.75;;;9.90;99.90;;;;;;5028592;28;20365;-78
2022/06/03 01:20:35;;;;;;;10.75;4.65;;;9.80;99.90;;;;;;5072990;28;20550;-78
2022/06/03 01:23:25;;;;;;;9.82;4.40;;;9.80;99.90;;;;;;5071077;28;20499;-78
2022/06/03 01:26:08;;;;;;;7.57;5.20;;;9.80;99.90;;;;;;5072082;28;20098;-78
2022/06/03 01:28:43;;;;;;;6.45;4.45;;;9.80;99.90;;;;;;5054067;28;20069;-78
2022/06/03 01:31:42;;;;;;;8.82;4.57;;;9.70;99.90;;;;;;5052155;28;20122;-78
2022/06/03 01:34:29;;;;;;;11.73;5.30;;;9.60;99.90;;;;;;5052770;28;20053;-79
2022/06/03 01:37:06;;;;;;;11.50;4.90;;;9.60;99.90;;;;;;5078067;28;20125;-78
2022/06/03 01:39:56;;;;;;;9.07;5.38;;;9.60;99.90;;;;;;5072825;28;20135;-78
2022/06/03 01:42:56;;;;;;;8.35;4.90;;;9.60;99.90;;;;;;5067163;28;20059;-78
2022/06/03 01:45:51;;;;;;;7.00;5.32;;;9.50;99.90;;;;;;5072883;28;20079;-78
2022/06/03 01:48:35;;;;;;;6.57;5.22;;;9.50;99.90;;;;;;5070543;28;20111;-78
2022/06/03 01:51:01;;;;;;;9.52;5.50;;;9.50;99.90;;;;;;5071779;28;20052;-78
2022/06/03 01:53:48;;;;;;;8.15;4.60;;;9.40;99.90;;;;;;5058809;28;20552;-78
2022/06/03 01:56:50;;;;;;;12.85;5.53;;;9.40;99.90;;;;;;5069417;28;20044;-78
2022/06/03 01:59:29;;;;;;;8.20;5.15;;;9.30;99.90;;;;;;5068136;28;20492;-78
2022/06/03 02:02:30;;;;;;;10.85;5.55;;;9.30;99.90;;;;;;5061082;28;20514;-78
2022/06/03 02:05:37;;;;;;;7.78;5.15;;;9.30;99.90;;;;;;5032272;28;20488;-78
2022/06/03 02:08:36;;;;;;;5.50;4.32;;;9.30;99.90;;;;;;5083049;28;20051;-78
2022/06/03 02:11:39;;;;;;;5.85;4.80;;;9.20;99.90;;;;;;5022318;28;20425;-78
2022/06/03 02:14:11;;;;;;;10.35;5.07;;;9.20;99.90;;;;;;5013160;28;20053;-78
2022/06/03 02:17:13;;;;;;;7.95;6.18;;;9.10;99.90;;;;;;5013753;28;20096;-78
2022/06/03 02:19:57;;;;;;;10.38;5.53;;;9.20;99.90;;;;;;5028715;28;20045;-78
2022/06/03 02:22:59;;;;;;;7.93;6.30;;;9.10;99.90;;;;;;5032139;28;20060;-78
2022/06/03 02:25:47;;;;;;;11.45;6.00;;;9.20;99.90;;;;;;5013864;28;20038;-78
2022/06/03 02:28:39;;;;;;;9.88;6.70;;;9.20;99.90;;;;;;5030831;28;20128;-78
2022/06/03 02:31:43;;;;;;;10.70;5.90;;;9.20;99.90;;;;;;5033342;28;20484;-78
2022/06/03 02:34:47;;;;;;;8.98;6.03;;;9.20;99.90;;;;;;5003940;28;20161;-78
2022/06/03 02:37:44;;;;;;;8.45;6.20;;;9.20;99.90;;;;;;5002051;28;20050;-78
2022/06/03 02:40:28;;;;;;;7.10;6.13;;;9.20;99.90;;;;;;5005533;28;20104;-78
2022/06/03 02:43:35;;;;;;;9.98;6.55;;;9.10;99.90;;;;;;4996060;28;20452;-78
2022/06/03 02:46:22;;;;;;;10.10;6.47;;;9.20;99.90;;;;;;5013923;28;20089;-78
2022/06/03 02:49:10;;;;;;;14.73;7.40;;;9.10;99.90;;;;;;5016818;28;20048;-79
2022/06/03 02:52:04;;;;;;;10.68;6.88;;;9.10;99.90;;;;;;5031971;28;20044;-78
2022/06/03 02:54:39;;;;;;;10.17;6.73;;;9.10;99.90;;;;;;5022481;28;20096;-78
2022/06/03 02:57:23;;;;;;;;;;;9.10;99.90;;;;;;5033660;28;20284;-78
2022/06/03 03:00:19;;;;;;;10.63;7.25;;;9.10;99.90;;;;;;5020949;28;19929;-78
2022/06/03 03:03:00;;;;;;;10.15;7.45;;;9.10;99.90;;;;;;5012715;28;20046;-78
2022/06/03 03:05:59;;;;;;;14.05;8.10;;;9.10;99.90;;;;;;5025160;28;20511;-78
2022/06/03 03:08:27;;;;;;;10.77;7.55;;;9.10;99.90;;;;;;5052837;28;20052;-78
2022/06/03 03:11:08;;;;;;;10.35;7.50;;;9.10;99.90;;;;;;5051110;28;20068;-78
2022/06/03 03:13:49;;;;;;;12.55;8.18;;;9.20;99.90;;;;;;5051363;28;20052;-79
2022/06/03 03:16:36;;;;;;;10.98;7.70;;;9.20;99.90;;;;;;5052126;28;20123;-78
2022/06/03 03:19:21;;;;;;;14.07;7.30;;;9.20;99.90;;;;;;5059395;28;20097;-78
2022/06/03 03:22:08;;;;;;;13.02;7.85;;;9.20;99.90;;;;;;5073582;28;20480;-78
2022/06/03 03:24:52;;;;;;;12.63;7.10;;;9.20;99.90;;;;;;5065185;28;20049;-79
2022/06/03 03:27:55;;;;;;;12.98;8.13;;;9.30;99.90;;;;;;5056279;28;20121;-78
2022/06/03 03:30:26;;;;;;;13.10;8.15;;;9.30;99.90;;;;;;5055629;28;20106;-78
2022/06/03 03:33:05;;;;;;;12.77;8.13;;;9.30;99.90;;;;;;5056198;28;20049;-78
2022/06/03 03:36:03;;;;;;;13.68;8.60;;;9.30;99.90;;;;;;5084125;28;20047;-78
2022/06/03 03:38:31;;;;;;;11.00;8.18;;;9.30;99.90;;;;;;5062955;28;20055;-78
2022/06/03 03:41:06;;;;;;;15.60;7.82;;;9.30;99.90;;;;;;5074458;28;20484;-78
2022/06/03 03:43:50;;;;;;;13.05;7.70;;;9.40;99.90;;;;;;5074570;28;20132;-78
2022/06/03 03:46:48;;;;;;;12.85;8.38;;;9.40;99.90;;;;;;5056172;28;20560;-78
2022/06/03 03:49:59;;;;;;;16.45;7.85;;;9.50;99.90;;;;;;5068779;28;20075;-79
2022/06/03 03:52:50;;;;;;;12.27;8.52;;;9.50;99.90;;;;;;5063719;28;20048;-78
2022/06/03 03:55:27;;;;;;;12.20;7.72;;;9.50;99.90;;;;;;5068368;28;20048;-78
2022/06/03 03:57:56;;;;;;;12.35;7.78;;;9.60;99.90;;;;;;5065376;28;20049;-78
2022/06/03 04:00:33;;;;;;;16.95;8.95;;;9.60;99.90;;;;;;5054806;28;20041;-78
2022/06/03 04:03:17;;;;;;;11.63;6.93;;;9.60;99.90;;;;;;5054664;28;20048;-78
2022/06/03 04:05:57;;;;;;;12.90;8.02;;;9.70;99.90;;;;;;5058540;28;20041;-78
2022/06/03 04:09:10;;;;;;;13.65;8.00;;;9.70;99.90;;;;;;5076050;28;20048;-78
2022/06/03 04:11:58;;;;;;;12.50;7.40;;;9.80;99.90;;;;;;5031368;28;20133;-78
2022/06/03 04:14:53;;;;;;;10.55;7.78;;;9.80;99.90;;;;;;5067364;28;20060;-78
2022/06/03 04:17:53;;;;;;;9.18;6.95;;;9.90;99.90;;;;;;5071330;28;20052;-79
2022/06/03 04:21:06;;;;;;;9.65;7.25;;;9.90;99.90;;;;;;5053705;28;20396;-79
2022/06/03 04:24:16;;;;;;;11.38;6.70;;;9.90;99.90;;;;;;5052725;28;20052;-78
2022/06/03 04:27:19;;;;;;;9.38;6.90;;;9.90;99.90;;;;;;5053055;28;20041;-78
2022/06/03 04:30:04;;;;;;;12.93;6.78;;;10.00;99.90;;;;;;5055529;28;20166;-78
2022/06/03 04:32:55;;;;;;;8.55;6.20;;;10.00;99.90;;;;;;5059774;28;20037;-78
2022/06/03 04:35:33;;;;;;;9.63;7.03;;;10.10;99.90;;;;;;5071010;28;20056;-79
2022/06/03 04:38:27;;;;;;;9.15;7.43;;;10.20;99.90;;;;;;5060005;28;20051;-78
2022/06/03 04:40:56;;;;;;;11.55;6.88;;;10.30;99.90;;;;;;5054427;28;20115;-78
2022/06/03 04:43:27;;;;;;;16.70;7.85;;;10.40;99.90;;;;;;5070941;28;20133;-79
2022/06/03 04:46:18;;;;;;;11.73;7.25;;;10.50;99.90;;;;;;5073689;28;20044;-78
2022/06/03 04:49:15;;;;;;;10.75;6.70;;;10.60;99.90;;;;;;5072096;28;20048;-78
2022/06/03 04:51:41;;;;;;;12.70;6.97;;;10.70;99.90;;;;;;5075532;28;20086;-79
2022/06/03 04:54:36;;;;;;;17.42;6.90;;;10.90;99.90;;;;;;5075296;28;20080;-79
2022/06/03 04:57:23;;;;;;;13.45;7.13;;;11.00;99.90;;;;;;5069214;28;20071;-79
2022/06/03 05:00:18;;;;;;;10.45;6.15;;;11.10;99.90;;;;;;5054559;28;20409;-79
2022/06/03 05:03:13;;;;;;;;;;;11.20;99.90;;;;;;5056572;28;20471;-79
2022/06/03 05:06:13;;;;;;;10.52;5.60;;;11.30;99.90;;;;;;5073199;28;20380;-79
2022/06/03 05:08:57;;;;;;;10.88;5.88;;;11.40;99.90;;;;;;5055022;28;20048;-80
2022/06/03 05:11:45;;;;;;;9.93;5.85;;;11.60;99.90;;;;;;5054329;28;20531;-80
2022/06/03 05:14:29;;;;;;;10.57;5.40;;;11.70;99.90;;;;;;5054405;28;20049;-79
2022/06/03 05:17:18;;;;;;;11.23;6.10;;;11.70;99.90;;;;;;5054340;28;20148;-80
2022/06/03 05:20:05;;;;;;;9.70;5.80;;;11.80;99.90;;;;;;5071342;28;20052;-79
2022/06/03 05:23:02;;;;;;;9.45;5.47;;;11.90;99.90;;;;;;5079117;28;20071;-77
2022/06/03 05:25:50;;;;;;;9.02;5.20;;;12.00;99.90;;;;;;5052756;28;20052;-80
2022/06/03 05:28:39;;;;;;;6.90;5.25;;;12.10;99.90;;;;;;5068360;28;20439;-79
2022/06/03 05:31:07;;;;;;;12.88;5.20;;;12.10;99.90;;;;;;5073366;28;20055;-79
2022/06/03 05:34:10;;;;;;;10.30;5.50;;;12.20;99.90;;;;;;5073548;28;20531;-79
2022/06/03 05:37:18;;;;;;;8.38;5.22;;;12.20;99.90;;;;;;5071990;28;20049;-79
2022/06/03 05:40:05;;;;;;;10.07;5.25;;;12.40;99.90;;;;;;5055697;28;20067;-79
2022/06/03 05:42:56;;;;;;;9.73;4.57;;;12.50;99.90;;;;;;5069027;28;20483;-80
2022/06/03 05:45:42;;;;;;;8.88;5.20;;;12.60;99.90;;;;;;5051700;28;20063;-81
2022/06/03 05:48:25;;;;;;;9.70;5.22;;;12.70;99.90;;;;;;5052830;28;20384;-79
2022/06/03 05:51:04;;;;;;;9.25;5.10;;;12.70;99.90;;;;;;5055886;28;20040;-80
2022/06/03 05:53:33;;;;;;;9.13;5.07;;;12.80;99.90;;;;;;5069204;28;20048;-80
2022/06/03 05:56:20;;;;;;;4.75;4.15;;;12.90;99.90;;;;;;5064212;28;20431;-79
2022/06/03 05:59:12;;;;;;;4.88;3.88;;;13.10;99.90;;;;;;5065157;28;20102;-81
2022/06/03 06:02:05;;;;;;;8.00;4.28;;;13.20;99.90;;;;;;5042846;28;20076;-80
2022/06/03 06:04:37;;;;;;;4.80;3.63;;;13.20;99.90;;;;;;5073570;28;20053;-81
2022/06/03 06:07:18;;;;;;;13.07;3.42;;;13.30;99.90;;;;;;5072122;28;20045;-80
2022/06/03 06:09:46;;;;;;;12.93;3.60;;;13.40;99.90;;;;;;5052195;28;20052;-79
2022/06/03 06:12:30;;;;;;;6.03;4.07;;;13.50;99.90;;;;;;5052809;28;20087;-79
2022/06/03 06:15:14;;;;;;;7.95;3.95;;;13.60;99.90;;;;;;5073483;28;20040;-80
2022/06/03 06:18:00;;;;;;;5.78;3.15;;;13.70;99.90;;;;;;5072315;28;20082;-80
2022/06/03 06:20:28;;;;;;;6.40;3.50;;;13.90;99.90;;;;;;5084786;28;20048;-80
2022/06/03 06:23:03;;;;;;;6.95;3.63;;;14.00;99.90;;;;;;5085905;28;20044;-79
2022/06/03 06:25:39;;;;;;;8.88;3.90;;;14.00;99.90;;;;;;5071571;28;20397;-81
2022/06/03 06:28:18;;;;;;;5.78;3.03;;;14.10;99.90;;;;;;5072388;28;20044;-81
2022/06/03 06:30:53;;;;;;;4.88;2.80;;;14.20;99.90;;;;;;5072139;28;20041;-78
2022/06/03 06:33:37;;;;;;;;;;;14.30;99.90;;;;;;5078390;28;20044;-78
2022/06/03 06:36:38;;;;;;;4.13;2.67;;;14.30;99.90;;;;;;5056366;28;19924;-79
2022/06/03 06:39:24;;;;;;;4.82;2.75;;;14.50;99.90;;;;;;5073240;28;20053;-80
2022/06/03 06:41:56;;;;;;;8.52;2.90;;;14.60;99.90;;;;;;5054640;28;20041;-80
2022/06/03 06:44:33;;;;;;;9.07;2.88;;;14.70;99.90;;;;;;5055078;28;20139;-79
2022/06/03 06:47:23;;;;;;;2.53;2.10;;;14.80;99.90;;;;;;5071121;28;20108;-80
2022/06/03 06:50:13;;;;;;;4.18;2.17;;;14.90;99.90;;;;;;5076795;28;20126;-80
2022/06/03 06:52:43;;;;;;;4.80;1.92;;;15.00;99.90;;;;;;5069031;28;20131;-79
2022/06/03 06:55:27;;;;;;;3.28;1.55;;;15.10;99.90;;;;;;5072211;28;20037;-77
2022/06/03 06:58:03;;;;;;;5.20;2.13;;;15.10;99.90;;;;;;5074609;28;20049;-81
2022/06/03 07:00:34;;;;;;;2.92;1.60;;;15.20;99.90;;;;;;5092818;28;20095;-79
2022/06/03 07:03:03;;;;;;;4.53;1.75;;;15.20;99.90;;;;;;5075118;28;20052;-79
2022/06/03 07:05:38;;;;;;;5.03;1.80;;;15.30;99.90;;;;;;5067878;28;20065;-80
2022/06/03 07:08:27;;;;;;;3.72;1.33;;;15.40;99.90;;;;;;5095240;28;20067;-80
2022/06/03 07:11:12;;;;;;;5.72;1.67;;;15.50;99.90;;;;;;5096714;28;20063;-81
2022/06/03 07:14:10;;;;;;;3.40;1.55;;;15.60;99.90;;;;;;5076419;28;20143;-80
2022/06/03 07:19:49;;;;;;;7.82;1.27;;;15.80;99.90;;;;;;5090749;28;20113;-81
2022/06/03 07:22:29;;;;;;;3.78;1.42;;;15.90;99.90;;;;;;5066541;28;20488;-83
2022/06/03 07:25:28;;;;;;;3.60;1.30;;;16.00;99.90;;;;;;5055304;28;20052;-78
2022/06/03 07:28:06;;;;;;;3.78;1.40;;;16.10;99.90;;;;;;5048541;28;20053;-80
2022/06/03 07:30:41;;;;;;;2.42;1.30;;;16.20;99.90;;;;;;5074073;28;20106;-80
2022/06/03 07:33:30;;;;;;;2.85;1.50;;;16.30;99.90;;;;;;5074133;28;20045;-82
2022/06/03 07:36:15;;;;;;;8.60;1.75;;;16.40;99.90;;;;;;5034595;28;20060;-80
2022/06/03 07:39:22;;;;;;;3.28;1.20;;;16.40;99.90;;;;;;5055019;28;20496;-80
2022/06/03 07:42:13;;;;;;;1.27;1.15;;;16.60;99.90;;;;;;5054318;28;20089;-80
2022/06/03 07:45:09;;;;;;;7.50;1.30;;;16.60;99.90;;;;;;5055336;28;20129;-80
2022/06/03 07:47:35;;;;;;;4.47;1.40;;;16.70;99.90;;;;;;5055075;28;20097;-82
2022/06/03 07:50:05;;;;;;;4.43;1.67;;;16.80;99.90;;;;;;5054827;28;20500;-82
2022/06/03 07:52:58;;;;;;;3.97;1.20;;;16.90;99.90;;;;;;5055271;28;20084;-80
2022/06/03 07:55:26;;;;;;;4.30;1.35;;;16.90;99.90;;;;;;5064890;28;20105;-80
2022/06/03 07:57:56;;;;;;;2.13;1.15;;;17.00;99.90;;;;;;5069943;28;20052;-80
2022/06/03 08:00:24;;;;;;;5.47;1.58;;;17.10;99.90;;;;;;5055840;28;20045;-80
2022/06/03 08:03:16;;;;;;;4.70;1.27;;;17.10;99.90;;;;;;5058691;28;20433;-80
2022/06/03 08:05:46;;;;;;;4.43;1.40;;;17.20;99.90;;;;;;5075023;28;20049;-79
2022/06/03 08:11:05;;;;;;;3.63;1.40;;;17.40;99.90;;;;;;5110830;28;20459;-81
2022/06/03 08:13:39;;;;;;;7.60;1.77;;;17.40;99.90;;;;;;5060089;28;20139;-80
2022/06/03 08:16:11;;;;;;;3.83;1.25;;;17.40;99.90;;;;;;5055629;28;20049;-80
2022/06/03 08:18:42;;;;;;;3.15;1.13;;;17.50;99.90;;;;;;5075660;28;20519;-80
2022/06/03 08:21:30;;;;;;;6.05;1.20;;;17.60;99.90;;;;;;5072522;28;20090;-80
2022/06/03 08:23:57;;;;;;;3.97;1.42;;;17.60;99.90;;;;;;5075124;28;20046;-80
2022/06/03 08:26:26;;;;;;;4.43;1.17;;;17.60;99.90;;;;;;5074665;28;20063;-82
2022/06/03 08:29:24;;;;;;;2.50;1.48;;;17.60;99.90;;;;;;5065086;28;20049;-80
2022/06/03 08:31:51;;;;;;;3.65;1.40;;;17.60;99.90;;;;;;5079731;28;20147;-80
2022/06/03 08:34:28;;;;;;;6.38;1.08;;;17.70;99.90;;;;;;5068247;28;20048;-79
2022/06/03 08:36:55;;;;;;;1.38;0.90;;;17.70;99.90;;;;;;5074003;28;20045;-81
2022/06/03 08:39:29;;;;;;;2.25;1.10;;;17.70;99.90;;;;;;5070826;28;20507;-80
2022/06/03 08:42:10;;;;;;;3.42;1.23;;;17.80;99.90;;;;;;5073974;28;20407;-79
2022/06/03 08:44:45;;;;;;;4.72;1.40;;;17.80;99.90;;;;;;5076440;28;20045;-81
2022/06/03 08:47:39;;;;;;;3.17;1.20;;;17.90;99.90;;;;;;5073110;28;20044;-81
2022/06/03 08:50:21;;;;;;;2.28;1.20;;;17.90;99.90;;;;;;5071445;28;20400;-80
2022/06/03 08:53:18;;;;;;;3.97;1.20;;;17.90;99.90;;;;;;5073488;28;20052;-80
2022/06/03 08:55:59;;;;;;;2.45;1.25;;;18.00;99.90;;;;;;5074443;28;20128;-78
2022/06/03 08:58:29;;;;;;;3.55;1.10;;;18.00;99.90;;;;;;5074300;28;20043;-80
2022/06/03 09:01:10;;;;;;;4.75;1.17;;;18.00;99.90;;;;;;5057409;28;20396;-78
2022/06/03 09:04:10;;;;;;;5.60;1.10;;;18.00;99.90;;;;;;5053113;28;20055;-77
2022/06/03 09:07:01;;;;;;;3.53;1.30;;;18.10;99.90;;;;;;5045991;28;20140;-81
2022/06/03 09:09:34;;;;;;;4.65;1.73;;;18.20;99.90;;;;;;5057255;28;20412;-79
2022/06/03 09:12:07;;;;;;;2.17;1.10;;;18.10;99.90;;;;;;5069225;28;20029;-81
2022/06/03 09:14:34;;;;;;;1.92;1.00;;;18.20;99.90;;;;;;5055918;28;20052;-78
2022/06/03 09:17:12;;;;;;;3.03;1.30;;;18.10;99.90;;;;;;5054466;28;20080;-79
2022/06/03 09:19:45;;;;;;;1.65;0.90;;;18.20;99.90;;;;;;5052158;28;20057;-78
2022/06/03 09:22:16;;;;;;;4.68;1.65;;;18.30;99.90;;;;;;5053284;28;20049;-79
2022/06/03 09:24:43;;;;;;;3.38;1.33;;;18.30;99.90;;;;;;5063010;28;20544;-80
2022/06/03 09:27:13;;;;;;;4.72;1.67;;;18.30;99.90;;;;;;5072697;28;20052;-78
2022/06/03 09:29:40;;;;;;;4.10;1.23;;;18.30;99.90;;;;;;5070765;28;20044;-79
2022/06/03 09:32:08;;;;;;;2.22;1.20;;;18.30;99.90;;;;;;5072660;28;20037;-79
2022/06/03 09:34:56;;;;;;;3.50;1.40;;;18.40;99.90;;;;;;5064056;28;20503;-80
2022/06/03 09:37:27;;;;;;;4.47;1.73;;;18.50;99.90;;;;;;5052809;28;20087;-77
2022/06/03 09:39:55;;;;;;;2.85;1.58;;;18.40;99.90;;;;;;5079425;28;20048;-79
2022/06/03 09:42:22;;;;;;;3.03;1.13;;;18.50;99.90;;;;;;5072155;28;20079;-80
2022/06/03 09:44:50;;;;;;;3.17;1.38;;;18.50;99.90;;;;;;5071309;28;20055;-79
2022/06/03 09:47:20;;;;;;;4.35;1.55;;;18.50;99.90;;;;;;5072517;28;20075;-79
2022/06/03 09:49:49;;;;;;;3.78;1.40;;;18.50;99.90;;;;;;5064432;28;20080;-79
2022/06/03 09:52:18;;;;;;;5.57;1.33;;;18.60;99.90;;;;;;5068912;28;20044;-79
2022/06/03 09:54:45;;;;;;;2.83;1.45;;;18.60;99.90;;;;;;5077141;28;20048;-82
2022/06/03 09:57:31;;;;;;;2.92;1.40;;;18.70;99.90;;;;;;5071345;28;20044;-80
2022/06/03 10:00:03;;;;;;;2.53;1.75;;;18.70;99.90;;;;;;5082924;28;20048;-78
2022/06/03 10:02:31;;;;;;;2.05;1.55;;;18.80;99.90;;;;;;5092437;28;20089;-79
2022/06/03 10:05:00;;;;;;;2.25;1.17;;;18.90;99.90;;;;;;5078261;28;20392;-79
2022/06/03 10:07:26;;;;;;;4.50;1.55;;;19.00;99.90;;;;;;5078948;28;20073;-80
2022/06/03 10:12:59;;;;;;;3.55;1.80;;;19.10;99.90;;;;;;5088216;28;20403;-80
2022/06/03 10:15:38;;;;;;;2.65;1.30;;;19.20;99.90;;;;;;5072341;28;20044;-79
2022/06/03 10:18:12;;;;;;;1.77;1.17;;;19.20;99.90;;;;;;5054347;28;20045;-80
2022/06/03 10:20:38;;;;;;;;;;;19.40;99.90;;;;;;5052389;28;20049;-78
2022/06/03 10:23:06;;;;;;;2.83;1.48;;;19.40;99.90;;;;;;5070443;28;19928;-77
2022/06/03 10:25:32;;;;;;;6.13;1.55;;;19.50;99.90;;;;;;5070637;28;20059;-79
2022/06/03 10:28:06;;;;;;;2.70;1.20;;;19.50;99.90;;;;;;5055576;28;20040;-79
2022/06/03 10:30:35;;;;;;;;;;;19.50;99.90;;;;;;5053725;28;20072;-78
2022/06/03 10:33:04;;;;;;;6.93;1.00;;;19.60;99.90;;;;;;5071993;28;19925;-78
2022/06/03 10:35:34;;;;;;;2.53;1.58;;;19.60;99.90;;;;;;5057140;28;20075;-78
2022/06/03 10:38:03;;;;;;;3.83;1.40;;;19.60;99.90;;;;;;5098857;28;20048;-79
2022/06/03 10:40:30;;;;;;;3.80;1.40;;;19.70;99.70;;;;;;5060882;28;20399;-80
2022/06/03 10:42:59;;;;;;;1.77;1.10;;;19.70;99.00;;;;;;5075768;28;20049;-81
2022/06/03 10:45:31;;;;;;;3.88;1.55;;;19.70;98.80;;;;;;5077977;28;20132;-78
2022/06/03 10:47:57;;;;;;;4.93;1.38;;;19.70;99.00;;;;;;5076122;28;20553;-80
2022/06/03 10:50:38;;;;;;;2.65;1.50;;;19.80;99.30;;;;;;5059626;28;20050;-79
2022/06/03 11:01:43;;;;;;;1.50;1.00;;;19.80;97.90;;;;;;5054486;28;20079;-80
2022/06/03 11:04:28;;;;;;;2.35;1.20;;;19.80;97.30;;;;;;5074592;28;20040;-79
2022/06/03 11:06:55;;;;;;;4.80;1.67;;;19.80;96.90;;;;;;5083627;28;20071;-78
2022/06/03 11:09:23;;;;;;;3.00;1.08;;;19.80;97.50;;;;;;5055639;28;20456;-79
2022/06/03 11:11:56;;;;;;;3.83;1.08;;;19.80;97.30;;;;;;5084385;28;20399;-78
2022/06/03 11:14:36;;;;;;;2.65;1.20;;;19.80;96.10;;;;;;5075562;28;20472;-78
2022/06/03 11:17:18;;;;;;;2.13;1.20;;;19.80;95.50;;;;;;5075116;28;20136;-78
2022/06/03 11:19:54;;;;;;;3.47;1.10;;;19.80;95.60;;;;;;5075175;28;20517;-78
2022/06/03 11:22:25;;;;;;;2.35;1.50;;;19.90;95.60;;;;;;5053491;28;20088;-80
2022/06/03 11:25:19;;;;;;;3.63;1.10;;;19.90;96.30;;;;;;5058384;28;20040;-80
2022/06/03 11:27:44;;;;;;;2.88;1.55;;;19.90;97.40;;;;;;5058287;28;20163;-80
2022/06/03 11:30:43;;;;;;;2.90;1.23;;;19.90;96.00;;;;;;5055442;28;20128;-77
2022/06/03 11:33:24;;;;;;;4.03;1.10;;;20.00;97.50;;;;;;5092738;28;20057;-78
2022/06/03 11:36:06;;;;;;;2.85;1.40;;;20.00;96.40;;;;;;5074561;28;20028;-79
2022/06/03 11:38:49;;;;;;;2.90;0.95;;;20.00;95.50;;;;;;5096281;28;20048;-80
2022/06/03 11:41:23;;;;;;;2.65;1.27;;;19.90;93.20;;;;;;5081112;28;20479;-79
2022/06/03 11:44:18;;;;;;;2.47;1.17;;;19.80;95.30;;;;;;5071645;28;20158;-79
2022/06/03 11:46:54;;;;;;;2.80;1.08;;;19.80;95.70;;;;;;5045953;28;20147;-79
2022/06/03 11:49:22;;;;;;;2.22;1.40;;;19.80;93.70;;;;;;5054968;28;20044;-80
2022/06/03 11:51:49;;;;;;;1.67;1.08;;;19.80;94.50;;;;;;5056233;28;20119;-79
2022/06/03 11:54:18;;;;;;;2.38;1.00;;;19.80;93.10;;;;;;5055823;28;20053;-78
2022/06/03 11:56:47;;;;;;;6.20;1.30;;;19.80;93.50;;;;;;5060764;28;20052;-80
2022/06/03 11:59:18;;;;;;;2.38;1.02;;;19.90;94.70;;;;;;5054507;28;20508;-81
2022/06/03 12:01:50;;;;;;;3.83;1.25;;;20.00;95.70;;;;;;5060570;28;20041;-78
2022/06/03 12:04:47;;;;;;;1.90;1.35;;;20.10;94.90;;;;;;5074387;28;20544;-79
2022/06/03 12:07:50;;;;;;;2.75;1.63;;;20.20;95.40;;;;;;5075479;28;20048;-79
2022/06/03 12:10:30;;;;;;;3.92;1.40;;;20.20;95.10;;;;;;5074427;28;20053;-80
2022/06/03 12:13:15;;;;;;;5.65;1.30;;;20.30;93.90;;;;;;5056769;28;20072;-80
2022/06/03 12:15:53;;;;;;;1.95;1.10;;;20.20;93.70;;;;;;5082344;28;20141;-79
2022/06/03 12:18:39;;;;;;;3.45;1.42;;;20.20;92.90;;;;;;5074430;28;20060;-80
2022/06/03 12:21:38;;;;;;;5.78;1.10;;;20.20;94.10;;;;;;5073629;28;20044;-80
2022/06/03 12:24:33;;;;;;;1.67;1.02;;;20.20;94.10;;;;;;5073806;28;20052;-80
2022/06/03 12:27:04;;;;;;;4.22;1.20;;;20.30;95.40;;;;;;5071046;28;20056;-78
2022/06/03 12:29:37;;;;;;;4.72;1.70;;;20.20;94.00;;;;;;5073841;28;20052;-80
2022/06/03 12:32:22;;;;;;;4.60;1.70;;;20.20;93.10;;;;;;5066021;28;20123;-77
2022/06/03 12:34:48;;;;;;;1.75;0.90;;;20.10;94.40;;;;;;5073938;28;20314;-79
2022/06/03 12:37:34;;;;;;;2.58;1.00;;;20.10;94.80;;;;;;5075718;28;20048;-83
2022/06/03 12:40:21;;;;;;;4.10;1.40;;;20.20;95.30;;;;;;5074242;28;20120;-83
2022/06/03 12:42:47;;;;;;;2.38;1.30;;;20.30;94.50;;;;;;5059274;28;20552;-80
2022/06/03 12:45:31;;;;;;;3.40;1.00;;;20.30;94.50;;;;;;5068888;28;20123;-78
2022/06/03 12:47:57;;;;;;;2.95;1.25;;;20.40;94.80;;;;;;5079073;28;20431;-79
2022/06/03 12:50:37;;;;;;;2.83;1.05;;;20.50;94.50;;;;;;5067864;28;20037;-79
2022/06/03 12:53:18;;;;;;;1.58;1.10;;;20.50;94.00;;;;;;5053936;28;20048;-79
2022/06/03 12:55:51;;;;;;;2.67;1.05;;;20.30;91.50;;;;;;5062308;28;20044;-78
2022/06/03 12:58:47;;;;;;;2.60;0.95;;;20.30;91.60;;;;;;5074448;28;20499;-78
2022/06/03 13:01:34;;;;;;;2.35;1.17;;;20.30;93.90;;;;;;5060970;28;20095;-80
2022/06/03 13:04:24;;;;;;;2.47;1.40;;;20.40;93.10;;;;;;5070244;28;20447;-80
2022/06/03 13:07:27;;;;;;;5.97;1.40;;;20.50;92.30;;;;;;5069341;28;20048;-78
2022/06/03 13:10:17;;;;;;;2.28;0.93;;;20.50;92.60;;;;;;5092025;28;20091;-80
2022/06/03 13:12:46;;;;;;;2.95;1.00;;;20.50;91.10;;;;;;5054093;28;20053;-78
2022/06/03 13:15:20;;;;;;;3.38;0.90;;;20.60;91.90;;;;;;5053875;28;20075;-78
2022/06/03 13:17:59;;;;;;;;;;;20.70;92.00;;;;;;5073536;28;20040;-80
2022/06/03 13:20:45;;;;;;;6.13;0.80;;;20.70;93.10;;;;;;5073467;28;20268;-80
2022/06/03 13:23:29;;;;;;;5.22;1.17;;;20.60;90.50;;;;;;5071070;28;20055;-78
2022/06/03 13:26:15;;;;;;;3.05;1.25;;;20.50;90.70;;;;;;5054163;28;20460;-79
2022/06/03 13:28:43;;;;;;;1.13;0.90;;;20.40;92.60;;;;;;5079569;28;20109;-79
2022/06/03 13:31:16;;;;;;;2.65;1.25;;;20.50;92.10;;;;;;5071897;28;20496;-77
2022/06/03 13:34:24;;;;;;;2.85;1.55;;;20.50;92.30;;;;;;5071351;28;20063;-80
2022/06/03 13:36:49;;;;;;;2.28;1.25;;;20.40;89.10;;;;;;5049014;28;20048;-78
2022/06/03 13:39:18;;;;;;;1.23;0.90;;;20.20;90.70;;;;;;5069967;28;20045;-80
2022/06/03 13:44:37;;;;;;;2.67;1.13;;;20.20;94.60;;;;;;5052615;28;20056;-80
2022/06/03 13:47:20;;;;;;;1.98;1.20;;;20.20;97.00;;;;;;5066889;28;20120;-79
2022/06/03 13:50:03;;;;;;;5.68;1.50;;;20.20;96.50;;;;;;5071770;28;20041;-79
2022/06/03 13:52:40;;;;;;;4.72;1.33;;;20.00;98.00;;;;;;5040278;28;20397;-80
2022/06/03 13:55:21;;;;;;;3.20;1.40;;;20.10;99.40;;;;;;5072293;28;20051;-80
2022/06/03 13:58:19;;;;;;;4.32;1.00;;;20.10;99.90;;;;;;5066494;28;20063;-78
2022/06/03 14:00:50;;;;;;;3.30;1.10;;;20.10;99.40;;;;;;5053831;28;20082;-79
2022/06/03 14:03:18;;;;;;;2.08;1.02;;;19.90;99.00;;;;;;5071434;28;20045;-77
2022/06/03 14:05:54;;;;;;;4.45;1.15;;;19.80;99.00;;;;;;5071495;28;20044;-82
2022/06/03 14:08:38;;;;;;;4.45;0.95;;;19.70;99.30;;;;;;5089201;28;20075;-80
2022/06/03 14:11:03;;;;;;;2.58;1.20;;;19.70;99.40;;;;;;5087483;28;20076;-81
2022/06/03 14:13:48;;;;;;;2.45;1.00;;;19.80;99.30;;;;;;5072108;28;20432;-80
2022/06/03 14:16:32;;;;;;;3.78;1.08;;;20.00;99.90;;;;;;5071818;28;20105;-81
2022/06/03 14:19:20;;;;;;;4.40;1.00;;;20.10;99.90;;;;;;5071301;28;20055;-78
2022/06/03 14:21:49;;;;;;;3.78;1.13;;;20.20;97.30;;;;;;5071503;28;20044;-81
2022/06/03 14:24:32;;;;;;;2.15;0.73;;;20.10;97.40;;;;;;5051029;28;20099;-79